sensor_id;sensor_type;location;lat;lon;timestamp;pressure;altitude;pressure_sealevel;temperature;humidity
76132;BME280;64877;50.994;13.650;2024-02-23T00:00:23;96927.56;;;12.96;75.16
76132;BME280;64877;50.994;13.650;2024-02-23T00:02:49;96938.03;;;12.99;74.47
76132;BME280;64877;50.994;13.650;2024-02-23T00:05:14;96946.38;;;13.04;74.20
76132;BME280;64877;50.994;13.650;2024-02-23T00:07:40;96948.03;;;13.05;73.70
76132;BME280;64877;50.994;13.650;2024-02-23T00:10:06;96933.44;;;13.06;73.22
76132;BME280;64877;50.994;13.650;2024-02-23T00:12:31;96933.69;;;13.11;72.80
76132;BME280;64877;50.994;13.650;2024-02-23T00:14:57;96937.66;;;13.15;72.29
76132;BME280;64877;50.994;13.650;2024-02-23T00:17:22;96925.38;;;13.13;71.83
76132;BME280;64877;50.994;13.650;2024-02-23T00:19:48;96939.16;;;13.18;71.72
76132;BME280;64877;50.994;13.650;2024-02-23T00:22:14;96936.88;;;13.22;71.52
76132;BME280;64877;50.994;13.650;2024-02-23T00:24:40;96943.78;;;13.24;71.30
76132;BME280;64877;50.994;13.650;2024-02-23T00:27:06;96952.09;;;13.23;71.21
76132;BME280;64877;50.994;13.650;2024-02-23T00:29:31;96955.81;;;13.15;71.20
76132;BME280;64877;50.994;13.650;2024-02-23T00:31:57;96970.41;;;13.20;71.00
76132;BME280;64877;50.994;13.650;2024-02-23T00:34:22;96957.91;;;13.19;70.41
76132;BME280;64877;50.994;13.650;2024-02-23T00:36:48;96961.59;;;13.12;70.89
76132;BME280;64877;50.994;13.650;2024-02-23T00:39:14;96948.06;;;13.12;70.80
76132;BME280;64877;50.994;13.650;2024-02-23T00:41:39;96940.75;;;13.06;70.96
76132;BME280;64877;50.994;13.650;2024-02-23T00:44:05;96931.34;;;13.02;70.54
76132;BME280;64877;50.994;13.650;2024-02-23T00:46:31;96926.13;;;13.00;70.20
76132;BME280;64877;50.994;13.650;2024-02-23T00:48:56;96938.66;;;13.01;69.85
76132;BME280;64877;50.994;13.650;2024-02-23T00:51:22;96949.47;;;13.01;69.06
76132;BME280;64877;50.994;13.650;2024-02-23T00:53:47;96946.97;;;13.00;68.51
76132;BME280;64877;50.994;13.650;2024-02-23T00:56:13;96945.72;;;12.96;68.22
76132;BME280;64877;50.994;13.650;2024-02-23T00:58:38;96933.66;;;12.98;68.00
76132;BME280;64877;50.994;13.650;2024-02-23T01:01:04;96936.97;;;12.93;68.23
76132;BME280;64877;50.994;13.650;2024-02-23T01:03:29;96937.78;;;12.94;68.33
76132;BME280;64877;50.994;13.650;2024-02-23T01:05:55;96936.13;;;12.93;67.74
76132;BME280;64877;50.994;13.650;2024-02-23T01:08:20;96960.53;;;13.00;68.17
76132;BME280;64877;50.994;13.650;2024-02-23T01:10:46;96971.28;;;12.86;68.48
76132;BME280;64877;50.994;13.650;2024-02-23T01:13:11;96976.25;;;12.83;69.03
76132;BME280;64877;50.994;13.650;2024-02-23T01:15:37;96978.19;;;12.89;69.45
76132;BME280;64877;50.994;13.650;2024-02-23T01:18:03;96980.66;;;12.84;68.93
76132;BME280;64877;50.994;13.650;2024-02-23T01:20:29;96992.94;;;12.80;68.37
76132;BME280;64877;50.994;13.650;2024-02-23T01:22:54;96995.84;;;12.78;68.47
76132;BME280;64877;50.994;13.650;2024-02-23T01:25:20;97004.00;;;12.85;67.83
76132;BME280;64877;50.994;13.650;2024-02-23T01:27:45;97004.78;;;12.79;68.26
76132;BME280;64877;50.994;13.650;2024-02-23T01:30:11;97023.09;;;12.77;67.29
76132;BME280;64877;50.994;13.650;2024-02-23T01:32:36;97044.78;;;12.77;67.07
76132;BME280;64877;50.994;13.650;2024-02-23T01:35:07;97056.00;;;12.74;66.97
76132;BME280;64877;50.994;13.650;2024-02-23T01:37:33;97067.84;;;12.73;66.65
76132;BME280;64877;50.994;13.650;2024-02-23T01:39:59;97073.94;;;12.75;66.63
76132;BME280;64877;50.994;13.650;2024-02-23T01:42:24;97073.94;;;12.75;66.45
76132;BME280;64877;50.994;13.650;2024-02-23T01:44:51;97074.97;;;12.74;66.53
76132;BME280;64877;50.994;13.650;2024-02-23T01:47:17;97080.72;;;12.64;67.25
76132;BME280;64877;50.994;13.650;2024-02-23T01:49:44;97073.03;;;12.67;66.76
76132;BME280;64877;50.994;13.650;2024-02-23T01:52:12;97074.06;;;12.66;67.59
76132;BME280;64877;50.994;13.650;2024-02-23T01:54:39;97067.59;;;12.67;67.28
76132;BME280;64877;50.994;13.650;2024-02-23T01:57:04;97080.53;;;12.65;67.37
76132;BME280;64877;50.994;13.650;2024-02-23T01:59:31;97085.72;;;12.67;67.37
76132;BME280;64877;50.994;13.650;2024-02-23T02:01:56;97099.22;;;12.60;68.00
76132;BME280;64877;50.994;13.650;2024-02-23T02:04:22;97092.72;;;12.55;68.06
76132;BME280;64877;50.994;13.650;2024-02-23T02:06:48;97083.75;;;12.54;66.95
76132;BME280;64877;50.994;13.650;2024-02-23T02:09:14;97115.84;;;12.57;67.54
76132;BME280;64877;50.994;13.650;2024-02-23T02:11:48;97112.88;;;12.52;66.16
76132;BME280;64877;50.994;13.650;2024-02-23T02:14:17;97108.25;;;12.46;64.61
76132;BME280;64877;50.994;13.650;2024-02-23T02:16:43;97117.03;;;12.48;64.56
76132;BME280;64877;50.994;13.650;2024-02-23T02:19:12;97138.28;;;12.51;64.28
76132;BME280;64877;50.994;13.650;2024-02-23T02:21:38;97136.16;;;12.47;63.31
76132;BME280;64877;50.994;13.650;2024-02-23T02:24:04;97135.69;;;12.43;64.52
76132;BME280;64877;50.994;13.650;2024-02-23T02:26:30;97130.69;;;12.40;63.81
76132;BME280;64877;50.994;13.650;2024-02-23T02:28:56;97147.03;;;12.32;63.93
76132;BME280;64877;50.994;13.650;2024-02-23T02:31:21;97141.47;;;12.33;63.49
76132;BME280;64877;50.994;13.650;2024-02-23T02:33:47;97157.28;;;12.36;63.01
76132;BME280;64877;50.994;13.650;2024-02-23T02:36:12;97154.78;;;12.35;62.80
76132;BME280;64877;50.994;13.650;2024-02-23T02:38:38;97150.72;;;12.24;62.15
76132;BME280;64877;50.994;13.650;2024-02-23T02:41:03;97144.06;;;12.27;62.63
76132;BME280;64877;50.994;13.650;2024-02-23T02:43:30;97156.56;;;12.28;62.75
76132;BME280;64877;50.994;13.650;2024-02-23T02:45:56;97162.28;;;12.18;63.13
76132;BME280;64877;50.994;13.650;2024-02-23T02:48:22;97168.84;;;12.24;60.87
76132;BME280;64877;50.994;13.650;2024-02-23T02:50:47;97180.66;;;12.23;61.12
76132;BME280;64877;50.994;13.650;2024-02-23T02:53:13;97177.88;;;12.16;61.78
76132;BME280;64877;50.994;13.650;2024-02-23T02:55:42;97197.03;;;12.14;61.97
76132;BME280;64877;50.994;13.650;2024-02-23T02:58:08;97204.75;;;12.18;60.95
76132;BME280;64877;50.994;13.650;2024-02-23T03:00:34;97217.16;;;12.12;61.50
76132;BME280;64877;50.994;13.650;2024-02-23T03:02:59;97220.56;;;11.99;62.72
76132;BME280;64877;50.994;13.650;2024-02-23T03:05:25;97237.78;;;11.98;62.96
76132;BME280;64877;50.994;13.650;2024-02-23T03:07:50;97236.59;;;12.01;62.24
76132;BME280;64877;50.994;13.650;2024-02-23T03:10:15;97231.75;;;11.96;61.36
76132;BME280;64877;50.994;13.650;2024-02-23T03:12:41;97228.69;;;11.84;60.26
76132;BME280;64877;50.994;13.650;2024-02-23T03:15:07;97239.59;;;11.91;60.92
76132;BME280;64877;50.994;13.650;2024-02-23T03:17:34;97246.59;;;11.85;60.55
76132;BME280;64877;50.994;13.650;2024-02-23T03:19:59;97250.13;;;11.86;60.48
76132;BME280;64877;50.994;13.650;2024-02-23T03:22:24;97260.94;;;11.86;60.16
76132;BME280;64877;50.994;13.650;2024-02-23T03:24:50;97271.28;;;11.82;60.47
76132;BME280;64877;50.994;13.650;2024-02-23T03:27:15;97278.06;;;11.78;59.18
76132;BME280;64877;50.994;13.650;2024-02-23T03:29:41;97286.28;;;11.70;60.83
76132;BME280;64877;50.994;13.650;2024-02-23T03:32:07;97286.06;;;11.72;60.99
76132;BME280;64877;50.994;13.650;2024-02-23T03:34:33;97300.81;;;11.69;60.48
76132;BME280;64877;50.994;13.650;2024-02-23T03:36:58;97283.44;;;11.63;61.42
76132;BME280;64877;50.994;13.650;2024-02-23T03:39:24;97299.22;;;11.60;61.63
76132;BME280;64877;50.994;13.650;2024-02-23T03:41:50;97305.53;;;11.52;61.92
76132;BME280;64877;50.994;13.650;2024-02-23T03:44:15;97313.00;;;11.50;62.88
76132;BME280;64877;50.994;13.650;2024-02-23T03:46:41;97323.50;;;11.45;62.62
76132;BME280;64877;50.994;13.650;2024-02-23T03:49:06;97341.22;;;11.48;63.07
76132;BME280;64877;50.994;13.650;2024-02-23T03:51:32;97359.72;;;11.36;63.20
76132;BME280;64877;50.994;13.650;2024-02-23T03:54:02;97365.47;;;11.33;61.73
76132;BME280;64877;50.994;13.650;2024-02-23T03:56:28;97375.09;;;11.35;61.87
76132;BME280;64877;50.994;13.650;2024-02-23T03:58:53;97375.09;;;11.35;61.22
76132;BME280;64877;50.994;13.650;2024-02-23T04:01:19;97382.72;;;11.32;59.29
76132;BME280;64877;50.994;13.650;2024-02-23T04:03:44;97409.94;;;11.30;59.69
76132;BME280;64877;50.994;13.650;2024-02-23T04:06:09;97425.38;;;11.13;58.72
76132;BME280;64877;50.994;13.650;2024-02-23T04:08:35;97433.88;;;11.10;58.66
76132;BME280;64877;50.994;13.650;2024-02-23T04:11:00;97444.38;;;11.05;57.05
76132;BME280;64877;50.994;13.650;2024-02-23T04:13:25;97452.41;;;11.13;55.90
76132;BME280;64877;50.994;13.650;2024-02-23T04:15:51;97450.78;;;11.04;54.99
76132;BME280;64877;50.994;13.650;2024-02-23T04:18:16;97453.72;;;10.95;54.80
76132;BME280;64877;50.994;13.650;2024-02-23T04:20:42;97439.19;;;10.96;53.64
76132;BME280;64877;50.994;13.650;2024-02-23T04:23:07;97446.13;;;10.90;52.86
76132;BME280;64877;50.994;13.650;2024-02-23T04:25:32;97453.22;;;10.83;52.70
76132;BME280;64877;50.994;13.650;2024-02-23T04:27:58;97443.16;;;10.69;52.43
76132;BME280;64877;50.994;13.650;2024-02-23T04:30:23;97458.69;;;10.67;53.46
76132;BME280;64877;50.994;13.650;2024-02-23T04:32:48;97452.28;;;10.68;53.37
76132;BME280;64877;50.994;13.650;2024-02-23T04:35:14;97454.53;;;10.56;54.61
76132;BME280;64877;50.994;13.650;2024-02-23T04:37:43;97444.09;;;10.45;54.69
76132;BME280;64877;50.994;13.650;2024-02-23T04:40:09;97469.56;;;10.50;53.72
76132;BME280;64877;50.994;13.650;2024-02-23T04:42:35;97471.56;;;10.48;53.43
76132;BME280;64877;50.994;13.650;2024-02-23T04:45:00;97481.00;;;10.52;53.43
76132;BME280;64877;50.994;13.650;2024-02-23T04:47:26;97483.75;;;10.44;53.21
76132;BME280;64877;50.994;13.650;2024-02-23T04:49:51;97484.06;;;10.41;54.20
76132;BME280;64877;50.994;13.650;2024-02-23T04:52:16;97498.59;;;10.32;54.68
76132;BME280;64877;50.994;13.650;2024-02-23T04:54:42;97510.06;;;10.26;54.99
76132;BME280;64877;50.994;13.650;2024-02-23T04:57:07;97516.44;;;10.08;55.31
76132;BME280;64877;50.994;13.650;2024-02-23T04:59:33;97511.72;;;10.02;56.84
76132;BME280;64877;50.994;13.650;2024-02-23T05:01:58;97531.31;;;10.04;56.85
76132;BME280;64877;50.994;13.650;2024-02-23T05:04:24;97551.00;;;9.97;57.43
76132;BME280;64877;50.994;13.650;2024-02-23T05:06:52;97554.56;;;10.05;57.45
76132;BME280;64877;50.994;13.650;2024-02-23T05:09:17;97557.91;;;10.07;57.92
76132;BME280;64877;50.994;13.650;2024-02-23T05:11:42;97561.59;;;9.98;59.06
76132;BME280;64877;50.994;13.650;2024-02-23T05:14:08;97572.75;;;9.95;58.97
76132;BME280;64877;50.994;13.650;2024-02-23T05:16:33;97569.69;;;9.98;59.52
76132;BME280;64877;50.994;13.650;2024-02-23T05:18:59;97570.19;;;9.94;59.35
76132;BME280;64877;50.994;13.650;2024-02-23T05:21:24;97554.84;;;9.94;59.52
76132;BME280;64877;50.994;13.650;2024-02-23T05:23:51;97561.63;;;9.90;60.02
76132;BME280;64877;50.994;13.650;2024-02-23T05:26:16;97562.28;;;9.92;59.84
76132;BME280;64877;50.994;13.650;2024-02-23T05:28:41;97568.69;;;9.91;59.57
76132;BME280;64877;50.994;13.650;2024-02-23T05:31:09;97571.22;;;9.93;57.81
76132;BME280;64877;50.994;13.650;2024-02-23T05:33:35;97563.47;;;9.90;58.44
76132;BME280;64877;50.994;13.650;2024-02-23T05:36:00;97577.13;;;9.96;57.37
76132;BME280;64877;50.994;13.650;2024-02-23T05:38:25;97570.53;;;9.99;56.09
76132;BME280;64877;50.994;13.650;2024-02-23T05:40:51;97564.66;;;9.95;57.08
76132;BME280;64877;50.994;13.650;2024-02-23T05:43:16;97572.91;;;9.86;56.56
76132;BME280;64877;50.994;13.650;2024-02-23T05:45:42;97593.31;;;9.96;55.64
76132;BME280;64877;50.994;13.650;2024-02-23T05:48:09;97606.75;;;9.80;54.59
76132;BME280;64877;50.994;13.650;2024-02-23T05:50:34;97593.25;;;9.72;55.05
76132;BME280;64877;50.994;13.650;2024-02-23T05:53:00;97595.63;;;9.75;53.52
76132;BME280;64877;50.994;13.650;2024-02-23T05:55:25;97611.47;;;9.78;53.04
76132;BME280;64877;50.994;13.650;2024-02-23T05:57:51;97606.34;;;9.58;52.82
76132;BME280;64877;50.994;13.650;2024-02-23T06:00:17;97611.25;;;9.63;52.39
76132;BME280;64877;50.994;13.650;2024-02-23T06:02:44;97613.13;;;9.71;52.66
76132;BME280;64877;50.994;13.650;2024-02-23T06:05:09;97618.88;;;9.76;52.73
76132;BME280;64877;50.994;13.650;2024-02-23T06:07:35;97631.31;;;9.69;52.75
76132;BME280;64877;50.994;13.650;2024-02-23T06:10:02;97641.09;;;9.70;52.89
76132;BME280;64877;50.994;13.650;2024-02-23T06:12:27;97638.19;;;9.63;53.15
76132;BME280;64877;50.994;13.650;2024-02-23T06:14:53;97646.97;;;9.65;53.16
76132;BME280;64877;50.994;13.650;2024-02-23T06:17:18;97645.13;;;9.66;52.58
76132;BME280;64877;50.994;13.650;2024-02-23T06:19:43;97652.19;;;9.67;52.46
76132;BME280;64877;50.994;13.650;2024-02-23T06:22:09;97649.47;;;9.58;52.49
76132;BME280;64877;50.994;13.650;2024-02-23T06:24:36;97677.25;;;9.59;53.54
76132;BME280;64877;50.994;13.650;2024-02-23T06:27:01;97666.25;;;9.44;54.38
76132;BME280;64877;50.994;13.650;2024-02-23T06:29:29;97676.69;;;9.47;54.28
76132;BME280;64877;50.994;13.650;2024-02-23T06:31:55;97682.56;;;9.43;54.87
76132;BME280;64877;50.994;13.650;2024-02-23T06:34:20;97680.34;;;9.38;54.72
76132;BME280;64877;50.994;13.650;2024-02-23T06:36:45;97670.78;;;9.44;55.32
76132;BME280;64877;50.994;13.650;2024-02-23T06:39:11;97674.66;;;9.41;55.27
76132;BME280;64877;50.994;13.650;2024-02-23T06:41:37;97673.28;;;9.37;55.53
76132;BME280;64877;50.994;13.650;2024-02-23T06:44:04;97678.84;;;9.36;55.97
76132;BME280;64877;50.994;13.650;2024-02-23T06:46:30;97679.22;;;9.49;56.45
76132;BME280;64877;50.994;13.650;2024-02-23T06:48:55;97682.88;;;9.40;56.75
76132;BME280;64877;50.994;13.650;2024-02-23T06:51:21;97695.25;;;9.50;56.49
76132;BME280;64877;50.994;13.650;2024-02-23T06:53:47;97679.09;;;9.50;56.15
76132;BME280;64877;50.994;13.650;2024-02-23T06:56:12;97682.44;;;9.52;55.95
76132;BME280;64877;50.994;13.650;2024-02-23T06:58:38;97681.66;;;9.60;56.19
76132;BME280;64877;50.994;13.650;2024-02-23T07:01:04;97678.09;;;9.59;56.36
76132;BME280;64877;50.994;13.650;2024-02-23T07:03:32;97674.06;;;9.64;56.42
76132;BME280;64877;50.994;13.650;2024-02-23T07:05:57;97673.09;;;9.65;55.55
76132;BME280;64877;50.994;13.650;2024-02-23T07:08:23;97681.34;;;9.71;56.00
76132;BME280;64877;50.994;13.650;2024-02-23T07:10:48;97674.72;;;9.57;56.04
76132;BME280;64877;50.994;13.650;2024-02-23T07:13:14;97673.34;;;9.53;56.80
76132;BME280;64877;50.994;13.650;2024-02-23T07:15:39;97697.13;;;9.58;56.07
76132;BME280;64877;50.994;13.650;2024-02-23T07:18:05;97703.34;;;9.58;56.55
76132;BME280;64877;50.994;13.650;2024-02-23T07:20:30;97708.03;;;9.48;56.10
76132;BME280;64877;50.994;13.650;2024-02-23T07:22:56;97712.56;;;9.48;56.33
76132;BME280;64877;50.994;13.650;2024-02-23T07:25:21;97732.13;;;9.50;56.22
76132;BME280;64877;50.994;13.650;2024-02-23T07:27:47;97731.63;;;9.54;55.73
76132;BME280;64877;50.994;13.650;2024-02-23T07:30:16;97732.84;;;9.60;56.14
76132;BME280;64877;50.994;13.650;2024-02-23T07:32:43;97732.00;;;9.59;55.31
76132;BME280;64877;50.994;13.650;2024-02-23T07:35:09;97736.34;;;9.52;55.15
76132;BME280;64877;50.994;13.650;2024-02-23T07:37:34;97748.16;;;9.59;55.38
76132;BME280;64877;50.994;13.650;2024-02-23T07:40:00;97737.63;;;9.74;55.07
76132;BME280;64877;50.994;13.650;2024-02-23T07:42:25;97741.44;;;9.64;55.07
76132;BME280;64877;50.994;13.650;2024-02-23T07:44:52;97741.44;;;9.64;54.06
76132;BME280;64877;50.994;13.650;2024-02-23T07:47:17;97754.31;;;9.70;54.20
76132;BME280;64877;50.994;13.650;2024-02-23T07:49:43;97755.34;;;9.77;54.39
76132;BME280;64877;50.994;13.650;2024-02-23T07:52:08;97765.16;;;9.86;54.08
76132;BME280;64877;50.994;13.650;2024-02-23T07:54:34;97764.31;;;9.86;55.49
76132;BME280;64877;50.994;13.650;2024-02-23T07:56:59;97765.94;;;10.13;66.35
76132;BME280;64877;50.994;13.650;2024-02-23T07:59:25;97788.97;;;10.33;60.90
76132;BME280;64877;50.994;13.650;2024-02-23T08:01:51;97798.94;;;10.49;59.08
76132;BME280;64877;50.994;13.650;2024-02-23T08:04:17;97795.63;;;10.63;57.44
76132;BME280;64877;50.994;13.650;2024-02-23T08:06:43;97786.44;;;10.31;53.66
76132;BME280;64877;50.994;13.650;2024-02-23T08:09:09;97791.22;;;10.12;52.67
76132;BME280;64877;50.994;13.650;2024-02-23T08:11:35;97780.63;;;10.18;52.40
76132;BME280;64877;50.994;13.650;2024-02-23T08:14:01;97787.19;;;10.16;53.10
76132;BME280;64877;50.994;13.650;2024-02-23T08:16:28;97784.81;;;10.13;52.31
76132;BME280;64877;50.994;13.650;2024-02-23T08:18:54;97783.47;;;10.17;52.79
76132;BME280;64877;50.994;13.650;2024-02-23T08:21:20;97786.78;;;10.02;53.36
76132;BME280;64877;50.994;13.650;2024-02-23T08:23:46;97783.75;;;9.97;52.90
76132;BME280;64877;50.994;13.650;2024-02-23T08:26:12;97783.06;;;9.95;53.06
76132;BME280;64877;50.994;13.650;2024-02-23T08:28:38;97779.41;;;10.04;52.36
76132;BME280;64877;50.994;13.650;2024-02-23T08:31:04;97781.72;;;9.99;53.45
76132;BME280;64877;50.994;13.650;2024-02-23T08:33:32;97775.66;;;9.97;53.10
76132;BME280;64877;50.994;13.650;2024-02-23T08:35:58;97778.66;;;9.94;53.53
76132;BME280;64877;50.994;13.650;2024-02-23T08:38:24;97775.28;;;9.92;54.17
76132;BME280;64877;50.994;13.650;2024-02-23T08:40:51;97783.06;;;9.95;54.07
76132;BME280;64877;50.994;13.650;2024-02-23T08:43:17;97780.38;;;10.03;53.13
76132;BME280;64877;50.994;13.650;2024-02-23T08:45:43;97771.97;;;10.06;53.65
76132;BME280;64877;50.994;13.650;2024-02-23T08:48:09;97774.63;;;9.98;54.04
76132;BME280;64877;50.994;13.650;2024-02-23T08:50:42;97769.28;;;10.06;53.37
76132;BME280;64877;50.994;13.650;2024-02-23T08:53:08;97767.63;;;10.14;52.95
76132;BME280;64877;50.994;13.650;2024-02-23T08:55:33;97773.03;;;10.22;53.07
76132;BME280;64877;50.994;13.650;2024-02-23T08:58:01;97786.25;;;10.33;53.42
76132;BME280;64877;50.994;13.650;2024-02-23T09:00:26;97789.53;;;10.45;53.26
76132;BME280;64877;50.994;13.650;2024-02-23T09:02:52;97799.63;;;10.43;53.18
76132;BME280;64877;50.994;13.650;2024-02-23T09:05:17;97801.34;;;10.52;52.89
76132;BME280;64877;50.994;13.650;2024-02-23T09:07:43;97798.50;;;10.61;52.09
76132;BME280;64877;50.994;13.650;2024-02-23T09:10:09;97797.81;;;10.68;52.91
76132;BME280;64877;50.994;13.650;2024-02-23T09:12:34;97796.50;;;10.88;52.33
76132;BME280;64877;50.994;13.650;2024-02-23T09:15:00;97803.94;;;10.94;52.69
76132;BME280;64877;50.994;13.650;2024-02-23T09:17:25;97806.31;;;10.89;52.61
76132;BME280;64877;50.994;13.650;2024-02-23T09:19:51;97825.56;;;11.02;51.01
76132;BME280;64877;50.994;13.650;2024-02-23T09:22:16;97825.56;;;10.94;52.09
76132;BME280;64877;50.994;13.650;2024-02-23T09:24:42;97831.16;;;11.09;52.08
76132;BME280;64877;50.994;13.650;2024-02-23T09:27:07;97827.28;;;11.20;50.54
76132;BME280;64877;50.994;13.650;2024-02-23T09:29:33;97830.63;;;11.13;50.29
76132;BME280;64877;50.994;13.650;2024-02-23T09:31:59;97830.28;;;11.17;49.50
76132;BME280;64877;50.994;13.650;2024-02-23T09:34:25;97828.78;;;11.22;50.12
76132;BME280;64877;50.994;13.650;2024-02-23T09:36:50;97830.97;;;11.35;50.59
76132;BME280;64877;50.994;13.650;2024-02-23T09:39:16;97831.81;;;11.44;50.23
76132;BME280;64877;50.994;13.650;2024-02-23T09:41:42;97828.59;;;11.48;49.64
76132;BME280;64877;50.994;13.650;2024-02-23T09:44:08;97825.56;;;11.59;48.91
76132;BME280;64877;50.994;13.650;2024-02-23T09:46:36;97840.91;;;11.75;49.16
76132;BME280;64877;50.994;13.650;2024-02-23T09:49:02;97831.94;;;11.91;47.46
76132;BME280;64877;50.994;13.650;2024-02-23T09:51:29;97823.50;;;11.86;47.62
76132;BME280;64877;50.994;13.650;2024-02-23T09:53:54;97830.91;;;12.00;46.88
76132;BME280;64877;50.994;13.650;2024-02-23T09:56:21;97820.09;;;11.92;46.12
76132;BME280;64877;50.994;13.650;2024-02-23T09:58:52;97816.22;;;11.86;45.71
76132;BME280;64877;50.994;13.650;2024-02-23T10:01:24;97819.25;;;11.92;46.47
76132;BME280;64877;50.994;13.650;2024-02-23T10:03:52;97814.03;;;11.90;46.88
76132;BME280;64877;50.994;13.650;2024-02-23T10:06:20;97827.50;;;12.06;46.06
76132;BME280;64877;50.994;13.650;2024-02-23T10:08:45;97833.31;;;11.87;45.11
76132;BME280;64877;50.994;13.650;2024-02-23T10:11:11;97829.91;;;11.93;46.03
76132;BME280;64877;50.994;13.650;2024-02-23T10:13:36;97844.97;;;11.87;45.92
76132;BME280;64877;50.994;13.650;2024-02-23T10:16:02;97848.16;;;11.99;45.64
76132;BME280;64877;50.994;13.650;2024-02-23T10:18:29;97849.72;;;11.94;46.19
76132;BME280;64877;50.994;13.650;2024-02-23T10:20:55;97858.00;;;11.84;46.21
76132;BME280;64877;50.994;13.650;2024-02-23T10:23:21;97857.47;;;11.72;46.68
76132;BME280;64877;50.994;13.650;2024-02-23T10:25:48;97866.94;;;11.68;46.60
76132;BME280;64877;50.994;13.650;2024-02-23T10:28:14;97864.41;;;11.67;46.22
76132;BME280;64877;50.994;13.650;2024-02-23T10:30:39;97870.16;;;11.63;46.44
76132;BME280;64877;50.994;13.650;2024-02-23T10:33:05;97883.34;;;11.75;45.89
76132;BME280;64877;50.994;13.650;2024-02-23T10:35:32;97882.84;;;11.87;45.40
76132;BME280;64877;50.994;13.650;2024-02-23T10:37:57;97884.69;;;11.95;43.89
76132;BME280;64877;50.994;13.650;2024-02-23T10:40:24;97885.03;;;11.92;44.28
76132;BME280;64877;50.994;13.650;2024-02-23T10:42:56;97883.84;;;11.95;44.21
76132;BME280;64877;50.994;13.650;2024-02-23T10:45:22;97888.25;;;11.79;44.02
76132;BME280;64877;50.994;13.650;2024-02-23T10:47:48;97881.31;;;11.60;43.94
76132;BME280;64877;50.994;13.650;2024-02-23T10:50:15;97879.78;;;11.66;43.73
76132;BME280;64877;50.994;13.650;2024-02-23T10:52:43;97875.75;;;11.54;43.58
76132;BME280;64877;50.994;13.650;2024-02-23T10:55:09;97890.44;;;11.59;43.42
76132;BME280;64877;50.994;13.650;2024-02-23T10:57:35;97903.63;;;11.71;43.57
76132;BME280;64877;50.994;13.650;2024-02-23T11:00:02;97903.09;;;11.67;43.26
76132;BME280;64877;50.994;13.650;2024-02-23T11:02:32;97915.47;;;11.70;43.02
76132;BME280;64877;50.994;13.650;2024-02-23T11:05:01;97920.16;;;11.68;43.30
76132;BME280;64877;50.994;13.650;2024-02-23T11:07:30;97928.97;;;11.70;43.29
76132;BME280;64877;50.994;13.650;2024-02-23T11:09:59;97924.22;;;11.63;43.73
76132;BME280;64877;50.994;13.650;2024-02-23T11:12:25;97926.09;;;11.47;43.47
76132;BME280;64877;50.994;13.650;2024-02-23T11:14:56;97933.53;;;11.45;43.14
76132;BME280;64877;50.994;13.650;2024-02-23T11:17:22;97928.94;;;11.53;42.84
76132;BME280;64877;50.994;13.650;2024-02-23T11:19:50;97915.13;;;11.64;43.61
76132;BME280;64877;50.994;13.650;2024-02-23T11:22:24;97921.50;;;11.63;43.50
76132;BME280;64877;50.994;13.650;2024-02-23T11:24:50;97924.09;;;11.89;42.56
76132;BME280;64877;50.994;13.650;2024-02-23T11:27:16;97924.09;;;11.89;43.81
76132;BME280;64877;50.994;13.650;2024-02-23T11:29:47;97912.75;;;11.86;43.38
76132;BME280;64877;50.994;13.650;2024-02-23T11:32:16;97921.22;;;11.91;42.61
76132;BME280;64877;50.994;13.650;2024-02-23T11:34:54;97920.88;;;11.86;43.34
76132;BME280;64877;50.994;13.650;2024-02-23T11:37:21;97911.09;;;11.85;43.59
76132;BME280;64877;50.994;13.650;2024-02-23T11:39:46;97902.94;;;11.77;43.54
76132;BME280;64877;50.994;13.650;2024-02-23T11:42:12;97897.03;;;11.57;44.99
76132;BME280;64877;50.994;13.650;2024-02-23T11:44:37;97890.44;;;11.59;44.18
76132;BME280;64877;50.994;13.650;2024-02-23T11:47:03;97897.88;;;11.74;44.53
76132;BME280;64877;50.994;13.650;2024-02-23T11:49:29;97903.13;;;11.59;44.49
76132;BME280;64877;50.994;13.650;2024-02-23T11:51:55;97909.53;;;11.50;45.51
76132;BME280;64877;50.994;13.650;2024-02-23T11:54:21;97909.03;;;11.54;45.00
76132;BME280;64877;50.994;13.650;2024-02-23T11:56:47;97919.84;;;11.46;45.72
76132;BME280;64877;50.994;13.650;2024-02-23T11:59:15;97915.78;;;11.50;44.99
76132;BME280;64877;50.994;13.650;2024-02-23T12:01:40;97918.50;;;11.50;44.55
76132;BME280;64877;50.994;13.650;2024-02-23T12:04:07;97916.78;;;11.33;44.09
76132;BME280;64877;50.994;13.650;2024-02-23T12:06:33;97909.19;;;11.36;44.29
76132;BME280;64877;50.994;13.650;2024-02-23T12:08:59;97913.41;;;11.31;45.62
76132;BME280;64877;50.994;13.650;2024-02-23T12:11:24;97916.94;;;11.31;45.58
76132;BME280;64877;50.994;13.650;2024-02-23T12:13:50;97911.03;;;11.36;44.93
76132;BME280;64877;50.994;13.650;2024-02-23T12:16:16;97913.41;;;11.47;43.98
76132;BME280;64877;50.994;13.650;2024-02-23T12:18:42;97918.31;;;11.52;44.03
76132;BME280;64877;50.994;13.650;2024-02-23T12:21:08;97924.91;;;11.41;43.90
76132;BME280;64877;50.994;13.650;2024-02-23T12:23:44;97927.78;;;11.56;43.95
76132;BME280;64877;50.994;13.650;2024-02-23T12:26:14;97924.41;;;11.70;43.85
76132;BME280;64877;50.994;13.650;2024-02-23T12:28:40;97914.59;;;11.77;42.91
76132;BME280;64877;50.994;13.650;2024-02-23T12:31:06;97903.78;;;11.77;43.51
76132;BME280;64877;50.994;13.650;2024-02-23T12:33:34;97909.72;;;11.89;43.64
76132;BME280;64877;50.994;13.650;2024-02-23T12:36:00;97898.03;;;11.97;43.19
76132;BME280;64877;50.994;13.650;2024-02-23T12:38:26;97904.97;;;11.75;43.60
76132;BME280;64877;50.994;13.650;2024-02-23T12:40:52;97900.41;;;11.75;43.54
76132;BME280;64877;50.994;13.650;2024-02-23T12:43:18;97882.66;;;11.81;43.74
76132;BME280;64877;50.994;13.650;2024-02-23T12:45:49;97894.16;;;11.91;43.35